sensor_id;sensor_type;location;lat;lon;timestamp;P1;durP1;ratioP1;P2;durP2;ratioP2
52106;SDS011;38105;52.968;5.974;2023-02-23T00:01:54;438.20;;;149.77;;
52106;SDS011;38105;52.968;5.974;2023-02-23T00:04:21;446.73;;;162.23;;
52106;SDS011;38105;52.968;5.974;2023-02-23T00:06:48;438.13;;;157.73;;
52106;SDS011;38105;52.968;5.974;2023-02-23T00:09:17;444.07;;;151.00;;
52106;SDS011;38105;52.968;5.974;2023-02-23T00:11:49;445.43;;;157.63;;
52106;SDS011;38105;52.968;5.974;2023-02-23T00:14:16;437.23;;;156.33;;
52106;SDS011;38105;52.968;5.974;2023-02-23T00:16:42;441.00;;;160.10;;
52106;SDS011;38105;52.968;5.974;2023-02-23T00:19:09;435.10;;;151.97;;
52106;SDS011;38105;52.968;5.974;2023-02-23T00:21:38;435.80;;;158.93;;
52106;SDS011;38105;52.968;5.974;2023-02-23T00:26:35;443.00;;;157.97;;
52106;SDS011;38105;52.968;5.974;2023-02-23T00:29:07;441.83;;;160.80;;
52106;SDS011;38105;52.968;5.974;2023-02-23T00:31:40;436.50;;;162.67;;
52106;SDS011;38105;52.968;5.974;2023-02-23T00:34:08;451.10;;;164.43;;
52106;SDS011;38105;52.968;5.974;2023-02-23T00:36:35;430.57;;;146.17;;
52106;SDS011;38105;52.968;5.974;2023-02-23T00:39:05;429.80;;;142.53;;
52106;SDS011;38105;52.968;5.974;2023-02-23T00:41:43;430.97;;;145.60;;
52106;SDS011;38105;52.968;5.974;2023-02-23T00:44:09;437.80;;;154.47;;
52106;SDS011;38105;52.968;5.974;2023-02-23T00:46:35;435.43;;;154.37;;
52106;SDS011;38105;52.968;5.974;2023-02-23T00:49:00;426.97;;;142.10;;
52106;SDS011;38105;52.968;5.974;2023-02-23T00:51:26;438.83;;;152.67;;
52106;SDS011;38105;52.968;5.974;2023-02-23T00:53:55;439.33;;;155.77;;
52106;SDS011;38105;52.968;5.974;2023-02-23T00:56:22;433.03;;;147.00;;
52106;SDS011;38105;52.968;5.974;2023-02-23T00:58:48;440.47;;;156.97;;
52106;SDS011;38105;52.968;5.974;2023-02-23T01:01:14;439.37;;;154.77;;
52106;SDS011;38105;52.968;5.974;2023-02-23T01:03:40;430.67;;;142.50;;
52106;SDS011;38105;52.968;5.974;2023-02-23T01:06:08;438.33;;;149.57;;
52106;SDS011;38105;52.968;5.974;2023-02-23T01:08:37;455.70;;;161.50;;
52106;SDS011;38105;52.968;5.974;2023-02-23T01:11:05;447.33;;;149.80;;
52106;SDS011;38105;52.968;5.974;2023-02-23T01:13:33;440.07;;;154.33;;
52106;SDS011;38105;52.968;5.974;2023-02-23T01:16:02;446.63;;;154.30;;
52106;SDS011;38105;52.968;5.974;2023-02-23T01:18:29;443.13;;;157.67;;
52106;SDS011;38105;52.968;5.974;2023-02-23T01:20:55;433.03;;;152.07;;
52106;SDS011;38105;52.968;5.974;2023-02-23T01:23:20;433.87;;;151.80;;
52106;SDS011;38105;52.968;5.974;2023-02-23T01:25:46;457.60;;;166.67;;
52106;SDS011;38105;52.968;5.974;2023-02-23T01:28:13;436.67;;;154.23;;
52106;SDS011;38105;52.968;5.974;2023-02-23T01:30:39;437.43;;;152.50;;
52106;SDS011;38105;52.968;5.974;2023-02-23T01:33:04;436.17;;;155.13;;
52106;SDS011;38105;52.968;5.974;2023-02-23T01:35:30;442.83;;;153.47;;
52106;SDS011;38105;52.968;5.974;2023-02-23T01:37:57;430.23;;;153.47;;
52106;SDS011;38105;52.968;5.974;2023-02-23T01:40:24;436.30;;;156.67;;
52106;SDS011;38105;52.968;5.974;2023-02-23T01:42:57;457.13;;;166.00;;
52106;SDS011;38105;52.968;5.974;2023-02-23T01:45:33;440.03;;;158.83;;
52106;SDS011;38105;52.968;5.974;2023-02-23T01:48:03;432.50;;;151.83;;
52106;SDS011;38105;52.968;5.974;2023-02-23T01:50:31;435.43;;;145.13;;
52106;SDS011;38105;52.968;5.974;2023-02-23T01:53:18;442.93;;;161.57;;
52106;SDS011;38105;52.968;5.974;2023-02-23T01:55:51;427.73;;;153.43;;
52106;SDS011;38105;52.968;5.974;2023-02-23T01:58:20;448.65;;;154.23;;
52106;SDS011;38105;52.968;5.974;2023-02-23T02:00:49;438.37;;;156.10;;
52106;SDS011;38105;52.968;5.974;2023-02-23T02:03:35;432.03;;;146.40;;
52106;SDS011;38105;52.968;5.974;2023-02-23T02:06:14;431.10;;;149.10;;
52106;SDS011;38105;52.968;5.974;2023-02-23T02:08:44;437.63;;;153.47;;
52106;SDS011;38105;52.968;5.974;2023-02-23T02:11:14;438.90;;;148.33;;
52106;SDS011;38105;52.968;5.974;2023-02-23T02:13:53;438.00;;;147.17;;
52106;SDS011;38105;52.968;5.974;2023-02-23T02:27:56;426.40;;;144.23;;
52106;SDS011;38105;52.968;5.974;2023-02-23T02:33:05;435.70;;;146.73;;
52106;SDS011;38105;52.968;5.974;2023-02-23T02:38:25;426.33;;;144.47;;
52106;SDS011;38105;52.968;5.974;2023-02-23T02:41:12;424.43;;;139.33;;
52106;SDS011;38105;52.968;5.974;2023-02-23T02:46:22;431.20;;;149.87;;
52106;SDS011;38105;52.968;5.974;2023-02-23T02:48:57;430.13;;;140.50;;
52106;SDS011;38105;52.968;5.974;2023-02-23T02:51:34;425.90;;;145.07;;
52106;SDS011;38105;52.968;5.974;2023-02-23T02:54:22;431.67;;;151.10;;
52106;SDS011;38105;52.968;5.974;2023-02-23T02:56:53;419.20;;;142.73;;
52106;SDS011;38105;52.968;5.974;2023-02-23T02:59:24;436.30;;;145.37;;
52106;SDS011;38105;52.968;5.974;2023-02-23T03:02:16;429.43;;;147.00;;
52106;SDS011;38105;52.968;5.974;2023-02-23T03:05:13;411.53;;;129.90;;
52106;SDS011;38105;52.968;5.974;2023-02-23T03:08:17;425.50;;;143.90;;
52106;SDS011;38105;52.968;5.974;2023-02-23T03:11:10;423.90;;;139.63;;
52106;SDS011;38105;52.968;5.974;2023-02-23T03:14:00;413.40;;;137.60;;
52106;SDS011;38105;52.968;5.974;2023-02-23T03:19:57;419.47;;;139.43;;
52106;SDS011;38105;52.968;5.974;2023-02-23T03:22:54;409.27;;;131.90;;
52106;SDS011;38105;52.968;5.974;2023-02-23T03:28:44;400.63;;;135.43;;
52106;SDS011;38105;52.968;5.974;2023-02-23T03:34:54;391.70;;;124.17;;
52106;SDS011;38105;52.968;5.974;2023-02-23T03:37:57;393.47;;;128.50;;
52106;SDS011;38105;52.968;5.974;2023-02-23T03:40:49;397.03;;;130.23;;
52106;SDS011;38105;52.968;5.974;2023-02-23T03:43:38;388.47;;;125.53;;
52106;SDS011;38105;52.968;5.974;2023-02-23T03:46:29;397.42;;;130.85;;
52106;SDS011;38105;52.968;5.974;2023-02-23T03:49:15;384.73;;;126.67;;
52106;SDS011;38105;52.968;5.974;2023-02-23T03:52:12;387.60;;;129.13;;
52106;SDS011;38105;52.968;5.974;2023-02-23T03:55:06;398.00;;;132.17;;
52106;SDS011;38105;52.968;5.974;2023-02-23T03:57:59;391.07;;;131.90;;
52106;SDS011;38105;52.968;5.974;2023-02-23T04:00:46;391.03;;;128.43;;
52106;SDS011;38105;52.968;5.974;2023-02-23T04:03:33;391.07;;;127.10;;
52106;SDS011;38105;52.968;5.974;2023-02-23T04:06:22;394.07;;;134.80;;
52106;SDS011;38105;52.968;5.974;2023-02-23T04:09:10;394.17;;;132.03;;
52106;SDS011;38105;52.968;5.974;2023-02-23T04:12:19;396.03;;;133.80;;
52106;SDS011;38105;52.968;5.974;2023-02-23T04:17:47;410.40;;;135.93;;
52106;SDS011;38105;52.968;5.974;2023-02-23T04:20:13;401.37;;;129.77;;
52106;SDS011;38105;52.968;5.974;2023-02-23T04:22:40;406.97;;;133.40;;
52106;SDS011;38105;52.968;5.974;2023-02-23T04:25:05;412.47;;;134.43;;
52106;SDS011;38105;52.968;5.974;2023-02-23T04:27:33;402.70;;;127.00;;
52106;SDS011;38105;52.968;5.974;2023-02-23T04:29:59;422.97;;;141.70;;
52106;SDS011;38105;52.968;5.974;2023-02-23T04:32:27;413.37;;;139.83;;
52106;SDS011;38105;52.968;5.974;2023-02-23T04:34:54;419.40;;;145.93;;
52106;SDS011;38105;52.968;5.974;2023-02-23T04:37:19;411.67;;;138.87;;
52106;SDS011;38105;52.968;5.974;2023-02-23T04:39:46;413.37;;;136.50;;
52106;SDS011;38105;52.968;5.974;2023-02-23T04:42:14;421.00;;;141.30;;
52106;SDS011;38105;52.968;5.974;2023-02-23T04:44:41;414.97;;;140.23;;
52106;SDS011;38105;52.968;5.974;2023-02-23T04:47:06;411.37;;;135.53;;
52106;SDS011;38105;52.968;5.974;2023-02-23T04:49:32;414.77;;;138.53;;
52106;SDS011;38105;52.968;5.974;2023-02-23T04:51:58;418.23;;;146.40;;
52106;SDS011;38105;52.968;5.974;2023-02-23T04:54:24;422.70;;;135.50;;
52106;SDS011;38105;52.968;5.974;2023-02-23T04:56:50;411.07;;;137.80;;
52106;SDS011;38105;52.968;5.974;2023-02-23T04:59:16;414.53;;;143.53;;
52106;SDS011;38105;52.968;5.974;2023-02-23T05:01:42;427.33;;;149.97;;
52106;SDS011;38105;52.968;5.974;2023-02-23T05:04:08;413.60;;;144.97;;
52106;SDS011;38105;52.968;5.974;2023-02-23T05:06:34;418.40;;;144.60;;
52106;SDS011;38105;52.968;5.974;2023-02-23T05:09:00;418.97;;;140.30;;
52106;SDS011;38105;52.968;5.974;2023-02-23T05:11:27;418.30;;;146.83;;
52106;SDS011;38105;52.968;5.974;2023-02-23T05:13:53;415.37;;;143.63;;
52106;SDS011;38105;52.968;5.974;2023-02-23T05:16:20;418.53;;;142.53;;
52106;SDS011;38105;52.968;5.974;2023-02-23T05:18:45;417.67;;;142.77;;
52106;SDS011;38105;52.968;5.974;2023-02-23T05:21:11;418.47;;;138.47;;
52106;SDS011;38105;52.968;5.974;2023-02-23T05:23:37;411.80;;;135.37;;
52106;SDS011;38105;52.968;5.974;2023-02-23T05:26:07;407.13;;;136.27;;
52106;SDS011;38105;52.968;5.974;2023-02-23T05:28:34;401.97;;;134.70;;
52106;SDS011;38105;52.968;5.974;2023-02-23T05:31:01;423.07;;;146.60;;
52106;SDS011;38105;52.968;5.974;2023-02-23T05:33:27;421.73;;;148.20;;
52106;SDS011;38105;52.968;5.974;2023-02-23T05:35:54;424.87;;;143.87;;
52106;SDS011;38105;52.968;5.974;2023-02-23T05:38:19;411.30;;;139.00;;
52106;SDS011;38105;52.968;5.974;2023-02-23T05:40:46;413.53;;;132.47;;
52106;SDS011;38105;52.968;5.974;2023-02-23T05:43:11;415.57;;;140.33;;
52106;SDS011;38105;52.968;5.974;2023-02-23T05:45:41;419.77;;;147.23;;
52106;SDS011;38105;52.968;5.974;2023-02-23T05:48:08;419.43;;;149.67;;
52106;SDS011;38105;52.968;5.974;2023-02-23T05:50:38;422.00;;;149.60;;
52106;SDS011;38105;52.968;5.974;2023-02-23T05:53:04;418.87;;;150.83;;
52106;SDS011;38105;52.968;5.974;2023-02-23T05:55:29;420.57;;;141.73;;
52106;SDS011;38105;52.968;5.974;2023-02-23T05:57:55;418.43;;;139.93;;
52106;SDS011;38105;52.968;5.974;2023-02-23T06:00:21;426.07;;;144.63;;
52106;SDS011;38105;52.968;5.974;2023-02-23T06:02:47;414.20;;;143.07;;
52106;SDS011;38105;52.968;5.974;2023-02-23T06:05:14;417.77;;;146.97;;
52106;SDS011;38105;52.968;5.974;2023-02-23T06:07:39;433.17;;;153.20;;
52106;SDS011;38105;52.968;5.974;2023-02-23T06:10:05;420.57;;;146.17;;
52106;SDS011;38105;52.968;5.974;2023-02-23T06:12:31;426.03;;;159.90;;
52106;SDS011;38105;52.968;5.974;2023-02-23T06:14:57;426.83;;;152.30;;
52106;SDS011;38105;52.968;5.974;2023-02-23T06:17:23;415.10;;;136.83;;
52106;SDS011;38105;52.968;5.974;2023-02-23T06:19:49;430.10;;;147.73;;
52106;SDS011;38105;52.968;5.974;2023-02-23T06:22:14;417.57;;;147.10;;
52106;SDS011;38105;52.968;5.974;2023-02-23T06:24:43;427.23;;;149.53;;
52106;SDS011;38105;52.968;5.974;2023-02-23T06:27:09;419.23;;;145.53;;
52106;SDS011;38105;52.968;5.974;2023-02-23T06:29:36;423.93;;;158.53;;
52106;SDS011;38105;52.968;5.974;2023-02-23T06:32:02;425.63;;;152.73;;
52106;SDS011;38105;52.968;5.974;2023-02-23T06:34:28;420.90;;;143.77;;
52106;SDS011;38105;52.968;5.974;2023-02-23T06:36:54;428.43;;;143.13;;
52106;SDS011;38105;52.968;5.974;2023-02-23T06:39:20;418.83;;;141.03;;
52106;SDS011;38105;52.968;5.974;2023-02-23T06:41:46;416.83;;;144.57;;
52106;SDS011;38105;52.968;5.974;2023-02-23T06:44:11;421.27;;;144.97;;
52106;SDS011;38105;52.968;5.974;2023-02-23T06:46:37;437.00;;;154.10;;
52106;SDS011;38105;52.968;5.974;2023-02-23T06:49:03;427.70;;;149.10;;
52106;SDS011;38105;52.968;5.974;2023-02-23T06:51:28;437.03;;;157.33;;
52106;SDS011;38105;52.968;5.974;2023-02-23T06:53:54;432.77;;;151.77;;
52106;SDS011;38105;52.968;5.974;2023-02-23T06:56:20;418.90;;;144.13;;
52106;SDS011;38105;52.968;5.974;2023-02-23T06:58:46;422.60;;;140.87;;
52106;SDS011;38105;52.968;5.974;2023-02-23T07:01:13;419.37;;;147.83;;
52106;SDS011;38105;52.968;5.974;2023-02-23T07:03:39;432.47;;;157.17;;
52106;SDS011;38105;52.968;5.974;2023-02-23T07:06:05;429.40;;;152.10;;
52106;SDS011;38105;52.968;5.974;2023-02-23T07:08:32;419.73;;;145.03;;
52106;SDS011;38105;52.968;5.974;2023-02-23T07:11:07;427.60;;;147.53;;
52106;SDS011;38105;52.968;5.974;2023-02-23T07:13:34;424.50;;;148.50;;
52106;SDS011;38105;52.968;5.974;2023-02-23T07:16:00;435.27;;;149.83;;
52106;SDS011;38105;52.968;5.974;2023-02-23T07:18:26;429.03;;;136.60;;
52106;SDS011;38105;52.968;5.974;2023-02-23T07:20:51;429.60;;;145.63;;
52106;SDS011;38105;52.968;5.974;2023-02-23T07:23:17;428.30;;;150.47;;
52106;SDS011;38105;52.968;5.974;2023-02-23T07:25:43;422.27;;;140.70;;
52106;SDS011;38105;52.968;5.974;2023-02-23T07:28:09;424.17;;;137.57;;
52106;SDS011;38105;52.968;5.974;2023-02-23T07:30:38;423.00;;;142.57;;
52106;SDS011;38105;52.968;5.974;2023-02-23T07:33:03;418.47;;;147.83;;
52106;SDS011;38105;52.968;5.974;2023-02-23T07:35:29;431.77;;;145.43;;
52106;SDS011;38105;52.968;5.974;2023-02-23T07:37:55;428.73;;;152.33;;
52106;SDS011;38105;52.968;5.974;2023-02-23T07:40:20;445.27;;;151.90;;
52106;SDS011;38105;52.968;5.974;2023-02-23T07:42:46;442.50;;;156.50;;
52106;SDS011;38105;52.968;5.974;2023-02-23T07:45:12;420.50;;;144.20;;
52106;SDS011;38105;52.968;5.974;2023-02-23T07:47:37;438.90;;;159.10;;
52106;SDS011;38105;52.968;5.974;2023-02-23T07:50:03;441.87;;;165.83;;
52106;SDS011;38105;52.968;5.974;2023-02-23T07:52:34;435.27;;;157.37;;
52106;SDS011;38105;52.968;5.974;2023-02-23T07:55:01;447.90;;;156.97;;
52106;SDS011;38105;52.968;5.974;2023-02-23T07:57:26;442.87;;;157.60;;
52106;SDS011;38105;52.968;5.974;2023-02-23T07:59:52;428.80;;;147.37;;
52106;SDS011;38105;52.968;5.974;2023-02-23T08:02:18;440.67;;;161.17;;
52106;SDS011;38105;52.968;5.974;2023-02-23T08:04:43;443.20;;;155.10;;
52106;SDS011;38105;52.968;5.974;2023-02-23T08:07:09;436.50;;;150.13;;
52106;SDS011;38105;52.968;5.974;2023-02-23T08:09:35;424.93;;;151.63;;
52106;SDS011;38105;52.968;5.974;2023-02-23T08:12:01;427.60;;;155.00;;
52106;SDS011;38105;52.968;5.974;2023-02-23T08:14:27;443.50;;;169.97;;
52106;SDS011;38105;52.968;5.974;2023-02-23T08:16:53;429.93;;;153.33;;
52106;SDS011;38105;52.968;5.974;2023-02-23T08:19:19;431.90;;;156.27;;
52106;SDS011;38105;52.968;5.974;2023-02-23T08:21:48;431.57;;;152.33;;
52106;SDS011;38105;52.968;5.974;2023-02-23T08:24:14;420.40;;;143.27;;
52106;SDS011;38105;52.968;5.974;2023-02-23T08:26:41;424.30;;;144.95;;
52106;SDS011;38105;52.968;5.974;2023-02-23T08:29:07;429.87;;;141.90;;
52106;SDS011;38105;52.968;5.974;2023-02-23T08:31:33;428.60;;;145.93;;
52106;SDS011;38105;52.968;5.974;2023-02-23T08:33:59;423.83;;;141.17;;
52106;SDS011;38105;52.968;5.974;2023-02-23T08:36:25;429.50;;;148.43;;
52106;SDS011;38105;52.968;5.974;2023-02-23T08:38:51;436.53;;;157.90;;
52106;SDS011;38105;52.968;5.974;2023-02-23T08:41:18;426.47;;;146.03;;
52106;SDS011;38105;52.968;5.974;2023-02-23T08:43:44;416.80;;;139.97;;
52106;SDS011;38105;52.968;5.974;2023-02-23T08:46:10;427.50;;;148.20;;
52106;SDS011;38105;52.968;5.974;2023-02-23T08:48:36;439.50;;;174.57;;
52106;SDS011;38105;52.968;5.974;2023-02-23T08:51:04;423.63;;;150.67;;
52106;SDS011;38105;52.968;5.974;2023-02-23T08:53:30;430.43;;;158.07;;
52106;SDS011;38105;52.968;5.974;2023-02-23T08:56:00;425.80;;;156.30;;
52106;SDS011;38105;52.968;5.974;2023-02-23T08:58:29;424.13;;;151.60;;
52106;SDS011;38105;52.968;5.974;2023-02-23T09:00:55;420.67;;;153.43;;
52106;SDS011;38105;52.968;5.974;2023-02-23T09:03:22;432.07;;;173.40;;
52106;SDS011;38105;52.968;5.974;2023-02-23T09:05:51;429.77;;;166.97;;
52106;SDS011;38105;52.968;5.974;2023-02-23T09:08:17;427.10;;;160.07;;
52106;SDS011;38105;52.968;5.974;2023-02-23T09:10:43;422.87;;;156.97;;
52106;SDS011;38105;52.968;5.974;2023-02-23T09:13:09;418.23;;;154.43;;
52106;SDS011;38105;52.968;5.974;2023-02-23T09:15:36;426.90;;;152.97;;
52106;SDS011;38105;52.968;5.974;2023-02-23T09:18:06;421.83;;;148.93;;
52106;SDS011;38105;52.968;5.974;2023-02-23T09:20:34;408.43;;;137.60;;
52106;SDS011;38105;52.968;5.974;2023-02-23T09:23:00;408.37;;;138.97;;
52106;SDS011;38105;52.968;5.974;2023-02-23T09:25:26;425.63;;;159.07;;
52106;SDS011;38105;52.968;5.974;2023-02-23T09:27:53;418.50;;;147.60;;
52106;SDS011;38105;52.968;5.974;2023-02-23T09:30:21;420.40;;;153.50;;
52106;SDS011;38105;52.968;5.974;2023-02-23T09:32:47;420.53;;;151.97;;
52106;SDS011;38105;52.968;5.974;2023-02-23T09:35:15;429.53;;;164.83;;
52106;SDS011;38105;52.968;5.974;2023-02-23T09:37:51;416.70;;;148.33;;
52106;SDS011;38105;52.968;5.974;2023-02-23T09:40:23;415.97;;;146.27;;
52106;SDS011;38105;52.968;5.974;2023-02-23T09:50:36;408.17;;;135.07;;
52106;SDS011;38105;52.968;5.974;2023-02-23T09:53:06;412.57;;;144.93;;
52106;SDS011;38105;52.968;5.974;2023-02-23T09:55:34;421.17;;;144.97;;
52106;SDS011;38105;52.968;5.974;2023-02-23T09:58:07;410.93;;;136.37;;
52106;SDS011;38105;52.968;5.974;2023-02-23T10:00:45;412.90;;;147.67;;
52106;SDS011;38105;52.968;5.974;2023-02-23T10:03:18;419.57;;;147.30;;
52106;SDS011;38105;52.968;5.974;2023-02-23T10:05:57;420.47;;;148.73;;
52106;SDS011;38105;52.968;5.974;2023-02-23T10:08:34;409.70;;;138.40;;
52106;SDS011;38105;52.968;5.974;2023-02-23T10:11:26;411.27;;;140.97;;
52106;SDS011;38105;52.968;5.974;2023-02-23T10:14:06;404.67;;;133.93;;
52106;SDS011;38105;52.968;5.974;2023-02-23T10:20:05;406.33;;;138.73;;
52106;SDS011;38105;52.968;5.974;2023-02-23T10:22:50;409.17;;;138.43;;
52106;SDS011;38105;52.968;5.974;2023-02-23T10:25:23;412.73;;;144.77;;
52106;SDS011;38105;52.968;5.974;2023-02-23T10:27:50;410.88;;;137.07;;
52106;SDS011;38105;52.968;5.974;2023-02-23T10:30:30;412.17;;;145.03;;
52106;SDS011;38105;52.968;5.974;2023-02-23T10:35:34;421.37;;;142.60;;
52106;SDS011;38105;52.968;5.974;2023-02-23T10:38:02;419.83;;;147.43;;
52106;SDS011;38105;52.968;5.974;2023-02-23T10:40:29;412.57;;;143.47;;
52106;SDS011;38105;52.968;5.974;2023-02-23T10:42:57;410.70;;;146.60;;
52106;SDS011;38105;52.968;5.974;2023-02-23T10:45:26;412.17;;;146.63;;
52106;SDS011;38105;52.968;5.974;2023-02-23T10:50:24;413.20;;;138.60;;
52106;SDS011;38105;52.968;5.974;2023-02-23T10:52:51;417.67;;;147.13;;
52106;SDS011;38105;52.968;5.974;2023-02-23T10:55:29;408.87;;;141.60;;
52106;SDS011;38105;52.968;5.974;2023-02-23T11:01:00;414.93;;;145.70;;
52106;SDS011;38105;52.968;5.974;2023-02-23T11:03:43;419.17;;;152.00;;
52106;SDS011;38105;52.968;5.974;2023-02-23T11:06:27;414.10;;;145.77;;
52106;SDS011;38105;52.968;5.974;2023-02-23T11:08:58;415.80;;;143.87;;
52106;SDS011;38105;52.968;5.974;2023-02-23T11:11:40;404.00;;;145.87;;
52106;SDS011;38105;52.968;5.974;2023-02-23T11:14:23;433.87;;;155.60;;
52106;SDS011;38105;52.968;5.974;2023-02-23T11:16:51;421.45;;;151.60;;
52106;SDS011;38105;52.968;5.974;2023-02-23T11:19:20;429.27;;;155.67;;
52106;SDS011;38105;52.968;5.974;2023-02-23T11:22:04;430.47;;;146.77;;
52106;SDS011;38105;52.968;5.974;2023-02-23T11:24:34;415.27;;;152.20;;
52106;SDS011;38105;52.968;5.974;2023-02-23T11:27:03;422.70;;;154.33;;
52106;SDS011;38105;52.968;5.974;2023-02-23T11:29:43;411.47;;;147.97;;
52106;SDS011;38105;52.968;5.974;2023-02-23T11:34:43;420.30;;;143.40;;
52106;SDS011;38105;52.968;5.974;2023-02-23T11:39:38;433.73;;;154.93;;
52106;SDS011;38105;52.968;5.974;2023-02-23T11:42:16;427.53;;;146.57;;
52106;SDS011;38105;52.968;5.974;2023-02-23T11:45:18;420.67;;;144.90;;
52106;SDS011;38105;52.968;5.974;2023-02-23T11:47:43;430.53;;;145.07;;
52106;SDS011;38105;52.968;5.974;2023-02-23T11:50:19;427.80;;;148.47;;
52106;SDS011;38105;52.968;5.974;2023-02-23T11:52:45;428.73;;;153.83;;
52106;SDS011;38105;52.968;5.974;2023-02-23T11:55:14;437.90;;;152.87;;
52106;SDS011;38105;52.968;5.974;2023-02-23T11:57:42;447.80;;;157.60;;
52106;SDS011;38105;52.968;5.974;2023-02-23T12:00:09;448.30;;;163.20;;
52106;SDS011;38105;52.968;5.974;2023-02-23T12:02:51;444.60;;;158.67;;
52106;SDS011;38105;52.968;5.974;2023-02-23T12:05:26;461.23;;;162.27;;
52106;SDS011;38105;52.968;5.974;2023-02-23T12:07:57;454.53;;;161.97;;
52106;SDS011;38105;52.968;5.974;2023-02-23T12:10:31;457.70;;;151.83;;
52106;SDS011;38105;52.968;5.974;2023-02-23T12:13:01;479.95;;;169.15;;
52106;SDS011;38105;52.968;5.974;2023-02-23T12:15:54;471.73;;;157.37;;
52106;SDS011;38105;52.968;5.974;2023-02-23T12:18:47;458.08;;;156.00;;
52106;SDS011;38105;52.968;5.974;2023-02-23T12:32:09;463.90;;;160.83;;
52106;SDS011;38105;52.968;5.974;2023-02-23T12:34:41;453.93;;;151.30;;
52106;SDS011;38105;52.968;5.974;2023-02-23T12:39:57;465.73;;;150.60;;
52106;SDS011;38105;52.968;5.974;2023-02-23T12:42:41;465.80;;;156.57;;
52106;SDS011;38105;52.968;5.974;2023-02-23T12:50:38;468.87;;;152.93;;
52106;SDS011;38105;52.968;5.974;2023-02-23T12:53:17;448.90;;;161.67;;
52106;SDS011;38105;52.968;5.974;2023-02-23T13:04:08;413.40;;;144.60;;
52106;SDS011;38105;52.968;5.974;2023-02-23T13:14:51;366.47;;;120.93;;
52106;SDS011;38105;52.968;5.974;2023-02-23T13:20:16;372.97;;;114.37;;
52106;SDS011;38105;52.968;5.974;2023-02-23T13:23:07;381.90;;;110.80;;
52106;SDS011;38105;52.968;5.974;2023-02-23T13:26:04;382.13;;;114.07;;
52106;SDS011;38105;52.968;5.974;2023-02-23T13:33:51;401.17;;;115.57;;
52106;SDS011;38105;52.968;5.974;2023-02-23T13:36:20;383.37;;;108.93;;
52106;SDS011;38105;52.968;5.974;2023-02-23T13:38:52;373.97;;;112.57;;
52106;SDS011;38105;52.968;5.974;2023-02-23T13:44:33;375.37;;;109.53;;
52106;SDS011;38105;52.968;5.974;2023-02-23T13:47:48;387.93;;;111.67;;
52106;SDS011;38105;52.968;5.974;2023-02-23T13:50:04;369.07;;;107.83;;
52106;SDS011;38105;52.968;5.974;2023-02-23T13:53:05;382.60;;;112.87;;
52106;SDS011;38105;52.968;5.974;2023-02-23T13:55:36;387.80;;;117.57;;
52106;SDS011;38105;52.968;5.974;2023-02-23T13:58:20;405.60;;;120.60;;
52106;SDS011;38105;52.968;5.974;2023-02-23T14:01:15;387.63;;;125.37;;
52106;SDS011;38105;52.968;5.974;2023-02-23T14:03:42;377.67;;;112.00;;
52106;SDS011;38105;52.968;5.974;2023-02-23T14:06:13;387.53;;;119.63;;
52106;SDS011;38105;52.968;5.974;2023-02-23T14:08:42;386.07;;;113.50;;
52106;SDS011;38105;52.968;5.974;2023-02-23T14:11:11;397.27;;;120.60;;
52106;SDS011;38105;52.968;5.974;2023-02-23T14:22:29;379.57;;;118.17;;
52106;SDS011;38105;52.968;5.974;2023-02-23T14:28:02;385.10;;;117.30;;
52106;SDS011;38105;52.968;5.974;2023-02-23T14:30:46;377.52;;;117.35;;
52106;SDS011;38105;52.968;5.974;2023-02-23T14:33:32;396.37;;;115.03;;
52106;SDS011;38105;52.968;5.974;2023-02-23T14:35:59;370.30;;;114.30;;
52106;SDS011;38105;52.968;5.974;2023-02-23T14:38:32;383.90;;;104.83;;
52106;SDS011;38105;52.968;5.974;2023-02-23T14:41:01;398.30;;;121.93;;
52106;SDS011;38105;52.968;5.974;2023-02-23T14:46:13;382.87;;;109.97;;
52106;SDS011;38105;52.968;5.974;2023-02-23T14:48:59;396.90;;;118.27;;
52106;SDS011;38105;52.968;5.974;2023-02-23T14:54:08;386.30;;;115.13;;
52106;SDS011;38105;52.968;5.974;2023-02-23T14:56:50;387.30;;;111.20;;
52106;SDS011;38105;52.968;5.974;2023-02-23T14:59:19;370.37;;;109.53;;
52106;SDS011;38105;52.968;5.974;2023-02-23T15:01:47;395.97;;;118.57;;
52106;SDS011;38105;52.968;5.974;2023-02-23T15:04:18;376.87;;;115.47;;
52106;SDS011;38105;52.968;5.974;2023-02-23T15:06:46;379.92;;;118.00;;
52106;SDS011;38105;52.968;5.974;2023-02-23T15:09:20;379.40;;;113.20;;
52106;SDS011;38105;52.968;5.974;2023-02-23T15:11:54;389.10;;;113.63;;
52106;SDS011;38105;52.968;5.974;2023-02-23T15:14:21;380.83;;;111.37;;
52106;SDS011;38105;52.968;5.974;2023-02-23T15:16:48;374.60;;;114.90;;
52106;SDS011;38105;52.968;5.974;2023-02-23T15:19:15;375.87;;;114.70;;
52106;SDS011;38105;52.968;5.974;2023-02-23T15:21:53;388.27;;;110.60;;
52106;SDS011;38105;52.968;5.974;2023-02-23T15:24:22;383.97;;;110.20;;
52106;SDS011;38105;52.968;5.974;2023-02-23T15:26:52;389.60;;;110.23;;
52106;SDS011;38105;52.968;5.974;2023-02-23T15:29:22;393.07;;;112.73;;
52106;SDS011;38105;52.968;5.974;2023-02-23T15:31:50;390.47;;;114.67;;
52106;SDS011;38105;52.968;5.974;2023-02-23T15:34:19;386.27;;;105.87;;
52106;SDS011;38105;52.968;5.974;2023-02-23T15:39:21;380.27;;;100.93;;
52106;SDS011;38105;52.968;5.974;2023-02-23T15:41:59;376.20;;;103.77;;
52106;SDS011;38105;52.968;5.974;2023-02-23T15:44:26;382.30;;;101.17;;
52106;SDS011;38105;52.968;5.974;2023-02-23T15:46:57;384.33;;;107.70;;
52106;SDS011;38105;52.968;5.974;2023-02-23T15:49:28;381.20;;;102.60;;
52106;SDS011;38105;52.968;5.974;2023-02-23T15:52:01;371.60;;;105.67;;
52106;SDS011;38105;52.968;5.974;2023-02-23T15:54:33;375.63;;;108.33;;
52106;SDS011;38105;52.968;5.974;2023-02-23T15:57:05;366.77;;;105.77;;
52106;SDS011;38105;52.968;5.974;2023-02-23T15:59:38;375.87;;;104.57;;
52106;SDS011;38105;52.968;5.974;2023-02-23T16:02:11;365.30;;;101.93;;
52106;SDS011;38105;52.968;5.974;2023-02-23T16:04:41;365.67;;;101.13;;
52106;SDS011;38105;52.968;5.974;2023-02-23T16:09:51;376.33;;;106.27;;
52106;SDS011;38105;52.968;5.974;2023-02-23T16:12:20;384.43;;;103.47;;
52106;SDS011;38105;52.968;5.974;2023-02-23T16:14:57;357.40;;;98.80;;
52106;SDS011;38105;52.968;5.974;2023-02-23T16:20:12;367.07;;;96.97;;
52106;SDS011;38105;52.968;5.974;2023-02-23T16:22:45;260.27;;;68.13;;
52106;SDS011;38105;52.968;5.974;2023-02-23T16:25:19;369.37;;;102.10;;
52106;SDS011;38105;52.968;5.974;2023-02-23T16:27:46;370.87;;;98.97;;
52106;SDS011;38105;52.968;5.974;2023-02-23T16:32:48;361.80;;;96.53;;
52106;SDS011;38105;52.968;5.974;2023-02-23T16:35:44;350.60;;;100.93;;